sensor_id;sensor_type;location;lat;lon;timestamp;P1;durP1;ratioP1;P2;durP2;ratioP2
6424;SDS011;12193;42.642;23.384;2023-02-08T00:01:49;19.53;;;8.70;;
6424;SDS011;12193;42.642;23.384;2023-02-08T00:04:19;21.40;;;9.53;;
6424;SDS011;12193;42.642;23.384;2023-02-08T00:06:48;19.53;;;9.17;;
6424;SDS011;12193;42.642;23.384;2023-02-08T00:09:17;18.83;;;8.70;;
6424;SDS011;12193;42.642;23.384;2023-02-08T00:11:46;19.77;;;9.00;;
6424;SDS011;12193;42.642;23.384;2023-02-08T00:14:15;21.70;;;9.00;;
6424;SDS011;12193;42.642;23.384;2023-02-08T00:16:45;20.50;;;8.57;;
6424;SDS011;12193;42.642;23.384;2023-02-08T00:19:17;17.77;;;8.33;;
6424;SDS011;12193;42.642;23.384;2023-02-08T00:21:46;20.27;;;9.00;;
6424;SDS011;12193;42.642;23.384;2023-02-08T00:24:15;19.27;;;8.83;;
6424;SDS011;12193;42.642;23.384;2023-02-08T00:26:45;21.63;;;9.80;;
6424;SDS011;12193;42.642;23.384;2023-02-08T00:29:14;21.37;;;9.77;;
6424;SDS011;12193;42.642;23.384;2023-02-08T00:31:43;19.97;;;8.67;;
6424;SDS011;12193;42.642;23.384;2023-02-08T00:34:12;21.77;;;8.80;;
6424;SDS011;12193;42.642;23.384;2023-02-08T00:36:45;21.63;;;9.10;;
6424;SDS011;12193;42.642;23.384;2023-02-08T00:39:14;20.37;;;9.00;;
6424;SDS011;12193;42.642;23.384;2023-02-08T00:41:45;21.70;;;9.43;;
6424;SDS011;12193;42.642;23.384;2023-02-08T00:44:15;18.40;;;9.03;;
6424;SDS011;12193;42.642;23.384;2023-02-08T00:46:44;20.40;;;8.90;;
6424;SDS011;12193;42.642;23.384;2023-02-08T00:49:13;23.87;;;10.07;;
6424;SDS011;12193;42.642;23.384;2023-02-08T00:51:46;20.20;;;9.10;;
6424;SDS011;12193;42.642;23.384;2023-02-08T00:54:16;20.57;;;9.93;;
6424;SDS011;12193;42.642;23.384;2023-02-08T00:56:47;19.43;;;8.60;;
6424;SDS011;12193;42.642;23.384;2023-02-08T00:59:16;18.30;;;8.97;;
6424;SDS011;12193;42.642;23.384;2023-02-08T01:01:45;19.57;;;9.30;;
6424;SDS011;12193;42.642;23.384;2023-02-08T01:04:14;20.47;;;9.87;;
6424;SDS011;12193;42.642;23.384;2023-02-08T04:08:47;36.30;;;17.50;;
6424;SDS011;12193;42.642;23.384;2023-02-08T04:11:16;35.43;;;14.80;;
6424;SDS011;12193;42.642;23.384;2023-02-08T04:13:46;40.97;;;16.30;;
6424;SDS011;12193;42.642;23.384;2023-02-08T04:16:16;33.17;;;14.20;;
6424;SDS011;12193;42.642;23.384;2023-02-08T04:18:45;34.80;;;15.97;;
6424;SDS011;12193;42.642;23.384;2023-02-08T04:21:14;36.43;;;15.33;;
6424;SDS011;12193;42.642;23.384;2023-02-08T04:23:47;31.87;;;13.03;;
6424;SDS011;12193;42.642;23.384;2023-02-08T04:26:16;38.13;;;14.70;;
6424;SDS011;12193;42.642;23.384;2023-02-08T04:28:46;36.40;;;15.30;;
6424;SDS011;12193;42.642;23.384;2023-02-08T04:31:15;43.13;;;14.50;;
6424;SDS011;12193;42.642;23.384;2023-02-08T04:33:45;32.13;;;13.73;;
6424;SDS011;12193;42.642;23.384;2023-02-08T04:36:14;32.77;;;14.30;;
6424;SDS011;12193;42.642;23.384;2023-02-08T04:38:43;36.97;;;16.10;;
6424;SDS011;12193;42.642;23.384;2023-02-08T04:41:15;38.57;;;15.67;;
6424;SDS011;12193;42.642;23.384;2023-02-08T04:43:44;31.87;;;14.23;;
6424;SDS011;12193;42.642;23.384;2023-02-08T04:46:14;37.53;;;15.17;;
6424;SDS011;12193;42.642;23.384;2023-02-08T04:48:43;39.37;;;15.87;;
6424;SDS011;12193;42.642;23.384;2023-02-08T04:51:13;39.97;;;16.20;;
6424;SDS011;12193;42.642;23.384;2023-02-08T04:53:42;39.30;;;15.10;;
6424;SDS011;12193;42.642;23.384;2023-02-08T04:56:11;34.60;;;15.03;;
6424;SDS011;12193;42.642;23.384;2023-02-08T04:58:43;40.03;;;15.40;;
6424;SDS011;12193;42.642;23.384;2023-02-08T05:01:13;38.07;;;15.20;;
6424;SDS011;12193;42.642;23.384;2023-02-08T05:03:43;43.03;;;16.07;;
6424;SDS011;12193;42.642;23.384;2023-02-08T05:06:14;42.23;;;17.30;;
6424;SDS011;12193;42.642;23.384;2023-02-08T05:08:43;39.43;;;16.40;;
6424;SDS011;12193;42.642;23.384;2023-02-08T05:11:12;35.53;;;16.07;;
6424;SDS011;12193;42.642;23.384;2023-02-08T05:13:50;39.67;;;16.43;;
6424;SDS011;12193;42.642;23.384;2023-02-08T05:16:20;50.67;;;17.43;;
6424;SDS011;12193;42.642;23.384;2023-02-08T05:18:49;45.43;;;16.97;;
6424;SDS011;12193;42.642;23.384;2023-02-08T05:21:19;39.30;;;17.03;;
6424;SDS011;12193;42.642;23.384;2023-02-08T05:23:49;42.63;;;17.07;;
6424;SDS011;12193;42.642;23.384;2023-02-08T05:26:18;33.83;;;16.03;;
6424;SDS011;12193;42.642;23.384;2023-02-08T05:28:51;39.67;;;16.33;;
6424;SDS011;12193;42.642;23.384;2023-02-08T05:31:21;41.20;;;17.03;;
6424;SDS011;12193;42.642;23.384;2023-02-08T05:33:51;46.13;;;18.13;;
6424;SDS011;12193;42.642;23.384;2023-02-08T05:36:21;42.57;;;16.93;;
6424;SDS011;12193;42.642;23.384;2023-02-08T05:38:51;38.33;;;15.60;;
6424;SDS011;12193;42.642;23.384;2023-02-08T05:41:20;38.60;;;16.13;;
6424;SDS011;12193;42.642;23.384;2023-02-08T05:43:52;40.13;;;16.87;;
6424;SDS011;12193;42.642;23.384;2023-02-08T05:46:22;40.47;;;17.23;;
6424;SDS011;12193;42.642;23.384;2023-02-08T05:48:51;40.70;;;15.80;;
6424;SDS011;12193;42.642;23.384;2023-02-08T05:51:20;41.70;;;15.97;;
6424;SDS011;12193;42.642;23.384;2023-02-08T05:53:50;35.77;;;15.33;;
6424;SDS011;12193;42.642;23.384;2023-02-08T05:56:19;32.77;;;14.80;;
6424;SDS011;12193;42.642;23.384;2023-02-08T05:58:48;35.83;;;16.40;;
6424;SDS011;12193;42.642;23.384;2023-02-08T06:01:20;42.40;;;16.83;;
6424;SDS011;12193;42.642;23.384;2023-02-08T06:03:49;42.57;;;16.23;;
6424;SDS011;12193;42.642;23.384;2023-02-08T06:06:19;37.37;;;17.33;;
6424;SDS011;12193;42.642;23.384;2023-02-08T06:08:49;40.73;;;16.80;;
6424;SDS011;12193;42.642;23.384;2023-02-08T06:11:18;40.97;;;17.50;;
6424;SDS011;12193;42.642;23.384;2023-02-08T06:13:47;42.43;;;17.87;;
6424;SDS011;12193;42.642;23.384;2023-02-08T06:16:20;45.37;;;18.30;;
6424;SDS011;12193;42.642;23.384;2023-02-08T06:18:49;42.43;;;17.23;;
6424;SDS011;12193;42.642;23.384;2023-02-08T06:21:18;48.20;;;18.30;;
6424;SDS011;12193;42.642;23.384;2023-02-08T06:23:48;41.13;;;18.33;;
6424;SDS011;12193;42.642;23.384;2023-02-08T06:26:17;46.77;;;19.53;;
6424;SDS011;12193;42.642;23.384;2023-02-08T06:28:47;40.73;;;18.63;;
6424;SDS011;12193;42.642;23.384;2023-02-08T06:31:16;45.97;;;20.53;;
6424;SDS011;12193;42.642;23.384;2023-02-08T06:33:47;48.13;;;21.27;;
6424;SDS011;12193;42.642;23.384;2023-02-08T06:36:17;49.70;;;20.30;;
6424;SDS011;12193;42.642;23.384;2023-02-08T06:38:46;43.37;;;18.67;;
6424;SDS011;12193;42.642;23.384;2023-02-08T06:41:16;44.53;;;19.27;;
6424;SDS011;12193;42.642;23.384;2023-02-08T06:43:45;45.27;;;18.70;;
6424;SDS011;12193;42.642;23.384;2023-02-08T06:46:14;39.50;;;18.30;;
6424;SDS011;12193;42.642;23.384;2023-02-08T06:48:43;42.03;;;18.87;;
6424;SDS011;12193;42.642;23.384;2023-02-08T06:51:15;40.97;;;18.20;;
6424;SDS011;12193;42.642;23.384;2023-02-08T06:53:45;42.70;;;18.17;;
6424;SDS011;12193;42.642;23.384;2023-02-08T06:56:14;46.03;;;20.63;;
6424;SDS011;12193;42.642;23.384;2023-02-08T06:58:43;46.77;;;20.70;;
6424;SDS011;12193;42.642;23.384;2023-02-08T07:01:13;52.73;;;21.20;;
6424;SDS011;12193;42.642;23.384;2023-02-08T07:03:42;42.07;;;18.07;;
6424;SDS011;12193;42.642;23.384;2023-02-08T07:06:12;38.60;;;16.57;;
6424;SDS011;12193;42.642;23.384;2023-02-08T07:08:46;36.23;;;15.33;;
6424;SDS011;12193;42.642;23.384;2023-02-08T07:11:16;43.63;;;18.03;;
6424;SDS011;12193;42.642;23.384;2023-02-08T07:13:48;45.67;;;20.03;;
6424;SDS011;12193;42.642;23.384;2023-02-08T07:16:19;39.23;;;18.77;;
6424;SDS011;12193;42.642;23.384;2023-02-08T07:18:49;37.10;;;18.63;;
6424;SDS011;12193;42.642;23.384;2023-02-08T07:21:21;37.93;;;17.97;;
6424;SDS011;12193;42.642;23.384;2023-02-08T07:23:50;36.13;;;17.77;;
6424;SDS011;12193;42.642;23.384;2023-02-08T07:26:19;34.60;;;16.23;;
6424;SDS011;12193;42.642;23.384;2023-02-08T07:28:49;44.27;;;18.93;;
6424;SDS011;12193;42.642;23.384;2023-02-08T07:31:18;50.90;;;22.73;;
6424;SDS011;12193;42.642;23.384;2023-02-08T07:33:47;44.83;;;20.90;;
6424;SDS011;12193;42.642;23.384;2023-02-08T07:36:17;57.00;;;23.93;;
6424;SDS011;12193;42.642;23.384;2023-02-08T07:38:49;47.63;;;19.23;;
6424;SDS011;12193;42.642;23.384;2023-02-08T07:41:18;59.97;;;24.73;;
6424;SDS011;12193;42.642;23.384;2023-02-08T07:43:48;48.93;;;23.40;;
6424;SDS011;12193;42.642;23.384;2023-02-08T07:46:17;51.27;;;23.10;;
6424;SDS011;12193;42.642;23.384;2023-02-08T07:48:48;54.83;;;23.97;;
6424;SDS011;12193;42.642;23.384;2023-02-08T07:51:18;57.23;;;25.13;;
6424;SDS011;12193;42.642;23.384;2023-02-08T07:53:50;58.13;;;25.77;;
6424;SDS011;12193;42.642;23.384;2023-02-08T07:56:20;51.93;;;25.00;;
6424;SDS011;12193;42.642;23.384;2023-02-08T07:58:49;52.87;;;24.40;;
6424;SDS011;12193;42.642;23.384;2023-02-08T08:01:18;57.37;;;25.43;;
6424;SDS011;12193;42.642;23.384;2023-02-08T08:03:48;55.27;;;25.10;;
6424;SDS011;12193;42.642;23.384;2023-02-08T08:06:19;53.83;;;24.23;;
6424;SDS011;12193;42.642;23.384;2023-02-08T08:08:52;52.70;;;24.83;;
6424;SDS011;12193;42.642;23.384;2023-02-08T08:11:22;55.97;;;24.93;;
6424;SDS011;12193;42.642;23.384;2023-02-08T08:13:51;51.63;;;24.17;;
6424;SDS011;12193;42.642;23.384;2023-02-08T08:16:21;49.83;;;23.70;;
6424;SDS011;12193;42.642;23.384;2023-02-08T08:18:50;50.00;;;22.33;;
6424;SDS011;12193;42.642;23.384;2023-02-08T08:21:20;47.83;;;24.10;;
6424;SDS011;12193;42.642;23.384;2023-02-08T08:23:51;53.13;;;21.87;;
6424;SDS011;12193;42.642;23.384;2023-02-08T08:26:21;47.40;;;23.03;;
6424;SDS011;12193;42.642;23.384;2023-02-08T08:28:50;44.67;;;21.53;;
6424;SDS011;12193;42.642;23.384;2023-02-08T08:31:20;47.50;;;22.80;;
6424;SDS011;12193;42.642;23.384;2023-02-08T08:33:50;46.47;;;21.87;;
6424;SDS011;12193;42.642;23.384;2023-02-08T08:36:19;43.40;;;22.00;;
6424;SDS011;12193;42.642;23.384;2023-02-08T08:38:48;42.60;;;21.20;;
6424;SDS011;12193;42.642;23.384;2023-02-08T08:41:21;41.50;;;19.83;;
6424;SDS011;12193;42.642;23.384;2023-02-08T08:43:52;39.33;;;17.37;;
6424;SDS011;12193;42.642;23.384;2023-02-08T08:46:21;41.50;;;19.53;;
6424;SDS011;12193;42.642;23.384;2023-02-08T08:48:50;41.00;;;17.97;;
6424;SDS011;12193;42.642;23.384;2023-02-08T08:51:20;43.40;;;19.23;;
6424;SDS011;12193;42.642;23.384;2023-02-08T08:53:50;43.10;;;20.83;;
6424;SDS011;12193;42.642;23.384;2023-02-08T08:56:21;45.43;;;21.53;;
6424;SDS011;12193;42.642;23.384;2023-02-08T08:58:51;39.27;;;18.50;;
6424;SDS011;12193;42.642;23.384;2023-02-08T09:01:20;37.80;;;17.33;;
6424;SDS011;12193;42.642;23.384;2023-02-08T09:03:49;34.03;;;16.33;;
6424;SDS011;12193;42.642;23.384;2023-02-08T09:06:19;34.63;;;17.63;;
6424;SDS011;12193;42.642;23.384;2023-02-08T09:08:48;31.00;;;14.83;;
6424;SDS011;12193;42.642;23.384;2023-02-08T09:11:18;41.03;;;15.80;;
6424;SDS011;12193;42.642;23.384;2023-02-08T09:13:49;34.67;;;16.27;;
6424;SDS011;12193;42.642;23.384;2023-02-08T09:16:21;40.83;;;17.67;;
6424;SDS011;12193;42.642;23.384;2023-02-08T09:18:51;33.57;;;16.73;;
6424;SDS011;12193;42.642;23.384;2023-02-08T09:21:21;34.03;;;15.27;;
6424;SDS011;12193;42.642;23.384;2023-02-08T09:23:52;42.03;;;16.73;;
6424;SDS011;12193;42.642;23.384;2023-02-08T09:26:25;33.93;;;14.90;;
6424;SDS011;12193;42.642;23.384;2023-02-08T09:28:54;28.90;;;13.70;;
6424;SDS011;12193;42.642;23.384;2023-02-08T09:31:25;25.07;;;11.70;;
6424;SDS011;12193;42.642;23.384;2023-02-08T09:33:56;28.07;;;12.30;;
6424;SDS011;12193;42.642;23.384;2023-02-08T09:36:28;20.70;;;8.67;;
6424;SDS011;12193;42.642;23.384;2023-02-08T09:39:00;24.43;;;11.77;;
6424;SDS011;12193;42.642;23.384;2023-02-08T09:41:36;23.37;;;11.57;;
6424;SDS011;12193;42.642;23.384;2023-02-08T09:44:19;20.80;;;9.70;;
6424;SDS011;12193;42.642;23.384;2023-02-08T09:46:54;22.80;;;10.27;;
6424;SDS011;12193;42.642;23.384;2023-02-08T09:49:26;23.97;;;11.33;;
6424;SDS011;12193;42.642;23.384;2023-02-08T09:52:00;27.87;;;11.93;;
6424;SDS011;12193;42.642;23.384;2023-02-08T09:54:36;25.67;;;11.90;;
6424;SDS011;12193;42.642;23.384;2023-02-08T09:57:13;21.23;;;9.10;;
6424;SDS011;12193;42.642;23.384;2023-02-08T09:59:48;28.80;;;11.00;;
6424;SDS011;12193;42.642;23.384;2023-02-08T10:02:23;20.13;;;9.93;;
6424;SDS011;12193;42.642;23.384;2023-02-08T10:04:56;19.33;;;8.77;;
6424;SDS011;12193;42.642;23.384;2023-02-08T10:07:27;22.97;;;10.30;;
6424;SDS011;12193;42.642;23.384;2023-02-08T10:10:00;24.63;;;10.47;;
6424;SDS011;12193;42.642;23.384;2023-02-08T10:12:40;26.13;;;11.83;;
6424;SDS011;12193;42.642;23.384;2023-02-08T10:15:17;26.77;;;12.20;;
6424;SDS011;12193;42.642;23.384;2023-02-08T10:18:07;23.40;;;10.57;;
6424;SDS011;12193;42.642;23.384;2023-02-08T10:20:51;20.43;;;10.97;;
6424;SDS011;12193;42.642;23.384;2023-02-08T10:23:32;26.57;;;10.27;;
6424;SDS011;12193;42.642;23.384;2023-02-08T10:26:17;26.47;;;12.13;;
6424;SDS011;12193;42.642;23.384;2023-02-08T10:29:00;27.57;;;11.87;;
6424;SDS011;12193;42.642;23.384;2023-02-08T10:31:52;25.83;;;12.37;;
6424;SDS011;12193;42.642;23.384;2023-02-08T10:34:35;21.97;;;10.87;;
6424;SDS011;12193;42.642;23.384;2023-02-08T10:37:12;25.73;;;11.47;;
6424;SDS011;12193;42.642;23.384;2023-02-08T10:39:44;27.57;;;12.30;;
6424;SDS011;12193;42.642;23.384;2023-02-08T10:42:16;25.37;;;11.73;;
6424;SDS011;12193;42.642;23.384;2023-02-08T10:44:56;19.33;;;9.67;;
6424;SDS011;12193;42.642;23.384;2023-02-08T10:47:34;22.27;;;10.93;;
6424;SDS011;12193;42.642;23.384;2023-02-08T10:50:13;21.67;;;10.77;;
6424;SDS011;12193;42.642;23.384;2023-02-08T10:52:48;19.53;;;9.27;;
6424;SDS011;12193;42.642;23.384;2023-02-08T10:55:18;25.67;;;10.73;;
6424;SDS011;12193;42.642;23.384;2023-02-08T10:57:49;23.40;;;11.37;;
6424;SDS011;12193;42.642;23.384;2023-02-08T11:00:25;24.00;;;10.43;;
6424;SDS011;12193;42.642;23.384;2023-02-08T11:02:56;20.50;;;10.43;;
6424;SDS011;12193;42.642;23.384;2023-02-08T11:05:31;23.57;;;10.30;;
6424;SDS011;12193;42.642;23.384;2023-02-08T11:08:05;17.53;;;7.77;;
6424;SDS011;12193;42.642;23.384;2023-02-08T11:10:37;18.93;;;9.57;;
6424;SDS011;12193;42.642;23.384;2023-02-08T11:13:14;21.47;;;9.97;;
6424;SDS011;12193;42.642;23.384;2023-02-08T11:15:50;19.20;;;9.53;;
6424;SDS011;12193;42.642;23.384;2023-02-08T11:18:21;20.53;;;10.37;;
6424;SDS011;12193;42.642;23.384;2023-02-08T11:20:54;23.60;;;10.03;;
6424;SDS011;12193;42.642;23.384;2023-02-08T11:23:27;20.87;;;11.10;;
6424;SDS011;12193;42.642;23.384;2023-02-08T11:26:13;24.47;;;11.57;;
6424;SDS011;12193;42.642;23.384;2023-02-08T11:28:56;20.63;;;10.80;;
6424;SDS011;12193;42.642;23.384;2023-02-08T11:31:30;18.43;;;9.47;;
6424;SDS011;12193;42.642;23.384;2023-02-08T11:34:01;19.20;;;8.83;;
6424;SDS011;12193;42.642;23.384;2023-02-08T11:36:34;18.33;;;9.60;;
6424;SDS011;12193;42.642;23.384;2023-02-08T11:39:14;17.37;;;8.50;;
6424;SDS011;12193;42.642;23.384;2023-02-08T11:41:46;14.17;;;6.57;;
6424;SDS011;12193;42.642;23.384;2023-02-08T11:44:20;17.70;;;8.83;;
6424;SDS011;12193;42.642;23.384;2023-02-08T11:46:57;15.63;;;7.33;;
6424;SDS011;12193;42.642;23.384;2023-02-08T11:49:36;15.23;;;7.40;;
6424;SDS011;12193;42.642;23.384;2023-02-08T11:52:17;16.30;;;7.40;;
6424;SDS011;12193;42.642;23.384;2023-02-08T11:54:50;13.80;;;7.50;;
6424;SDS011;12193;42.642;23.384;2023-02-08T11:57:21;13.50;;;6.97;;
6424;SDS011;12193;42.642;23.384;2023-02-08T12:02:47;15.63;;;6.60;;
6424;SDS011;12193;42.642;23.384;2023-02-08T12:05:20;15.33;;;7.30;;
6424;SDS011;12193;42.642;23.384;2023-02-08T12:07:58;13.93;;;7.03;;
6424;SDS011;12193;42.642;23.384;2023-02-08T12:13:37;13.07;;;6.50;;
6424;SDS011;12193;42.642;23.384;2023-02-08T12:16:24;14.80;;;6.63;;
6424;SDS011;12193;42.642;23.384;2023-02-08T12:22:16;20.70;;;7.47;;
6424;SDS011;12193;42.642;23.384;2023-02-08T12:24:53;14.13;;;6.70;;
6424;SDS011;12193;42.642;23.384;2023-02-08T12:27:34;12.87;;;6.53;;
6424;SDS011;12193;42.642;23.384;2023-02-08T12:30:13;10.83;;;6.27;;
6424;SDS011;12193;42.642;23.384;2023-02-08T12:35:54;12.80;;;5.77;;
6424;SDS011;12193;42.642;23.384;2023-02-08T12:38:35;11.17;;;5.87;;
6424;SDS011;12193;42.642;23.384;2023-02-08T12:41:29;12.33;;;6.10;;
6424;SDS011;12193;42.642;23.384;2023-02-08T12:44:03;12.50;;;6.00;;
6424;SDS011;12193;42.642;23.384;2023-02-08T12:46:45;13.03;;;6.03;;
6424;SDS011;12193;42.642;23.384;2023-02-08T12:49:24;11.20;;;5.67;;
6424;SDS011;12193;42.642;23.384;2023-02-08T12:52:05;10.53;;;5.57;;
6424;SDS011;12193;42.642;23.384;2023-02-08T12:54:47;15.33;;;6.00;;
6424;SDS011;12193;42.642;23.384;2023-02-08T12:57:21;11.97;;;6.07;;
6424;SDS011;12193;42.642;23.384;2023-02-08T12:59:53;13.20;;;5.80;;
6424;SDS011;12193;42.642;23.384;2023-02-08T13:02:28;11.83;;;5.70;;
6424;SDS011;12193;42.642;23.384;2023-02-08T13:05:10;10.93;;;5.73;;
6424;SDS011;12193;42.642;23.384;2023-02-08T13:07:47;10.03;;;5.70;;
6424;SDS011;12193;42.642;23.384;2023-02-08T13:10:24;12.60;;;5.40;;
6424;SDS011;12193;42.642;23.384;2023-02-08T13:12:57;10.63;;;5.90;;
6424;SDS011;12193;42.642;23.384;2023-02-08T13:15:35;10.50;;;4.80;;
6424;SDS011;12193;42.642;23.384;2023-02-08T13:18:09;10.50;;;4.80;;
6424;SDS011;12193;42.642;23.384;2023-02-08T13:20:44;12.10;;;4.93;;
6424;SDS011;12193;42.642;23.384;2023-02-08T13:23:20;7.13;;;4.23;;
6424;SDS011;12193;42.642;23.384;2023-02-08T13:25:55;10.43;;;4.90;;
6424;SDS011;12193;42.642;23.384;2023-02-08T13:28:27;3.23;;;1.73;;
6424;SDS011;12193;42.642;23.384;2023-02-08T13:30:58;8.20;;;4.00;;
6424;SDS011;12193;42.642;23.384;2023-02-08T13:33:33;6.50;;;3.07;;
6424;SDS011;12193;42.642;23.384;2023-02-08T13:36:08;7.00;;;4.10;;
6424;SDS011;12193;42.642;23.384;2023-02-08T13:38:51;12.97;;;5.97;;
6424;SDS011;12193;42.642;23.384;2023-02-08T13:41:22;5.60;;;3.00;;
6424;SDS011;12193;42.642;23.384;2023-02-08T13:43:53;4.17;;;2.13;;
6424;SDS011;12193;42.642;23.384;2023-02-08T13:46:26;8.50;;;3.30;;
6424;SDS011;12193;42.642;23.384;2023-02-08T13:49:03;5.40;;;2.80;;
6424;SDS011;12193;42.642;23.384;2023-02-08T13:54:32;10.70;;;3.57;;
6424;SDS011;12193;42.642;23.384;2023-02-08T13:57:01;7.53;;;3.70;;
6424;SDS011;12193;42.642;23.384;2023-02-08T14:02:59;10.40;;;4.47;;
6424;SDS011;12193;42.642;23.384;2023-02-08T14:08:17;13.23;;;5.73;;
6424;SDS011;12193;42.642;23.384;2023-02-08T14:11:00;11.50;;;5.27;;
6424;SDS011;12193;42.642;23.384;2023-02-08T14:13:35;14.97;;;6.20;;
6424;SDS011;12193;42.642;23.384;2023-02-08T14:16:27;11.67;;;5.70;;
6424;SDS011;12193;42.642;23.384;2023-02-08T14:18:59;11.67;;;5.30;;
6424;SDS011;12193;42.642;23.384;2023-02-08T14:21:30;12.00;;;6.10;;
6424;SDS011;12193;42.642;23.384;2023-02-08T14:24:05;10.00;;;5.17;;
6424;SDS011;12193;42.642;23.384;2023-02-08T14:26:38;11.80;;;5.77;;
6424;SDS011;12193;42.642;23.384;2023-02-08T14:29:16;13.40;;;5.37;;
6424;SDS011;12193;42.642;23.384;2023-02-08T14:31:51;17.97;;;6.00;;
6424;SDS011;12193;42.642;23.384;2023-02-08T14:34:27;11.10;;;5.87;;
6424;SDS011;12193;42.642;23.384;2023-02-08T14:37:00;11.37;;;5.90;;
6424;SDS011;12193;42.642;23.384;2023-02-08T14:39:32;12.87;;;5.93;;
6424;SDS011;12193;42.642;23.384;2023-02-08T14:42:05;12.43;;;5.83;;
6424;SDS011;12193;42.642;23.384;2023-02-08T14:50:34;13.87;;;6.43;;
6424;SDS011;12193;42.642;23.384;2023-02-08T14:53:16;13.53;;;6.50;;
6424;SDS011;12193;42.642;23.384;2023-02-08T14:55:53;13.90;;;6.87;;
6424;SDS011;12193;42.642;23.384;2023-02-08T14:58:30;14.33;;;6.43;;
6424;SDS011;12193;42.642;23.384;2023-02-08T15:01:05;16.77;;;6.63;;
6424;SDS011;12193;42.642;23.384;2023-02-08T15:03:36;11.23;;;5.57;;
6424;SDS011;12193;42.642;23.384;2023-02-08T15:09:13;14.00;;;6.73;;
6424;SDS011;12193;42.642;23.384;2023-02-08T15:11:52;14.57;;;6.37;;
6424;SDS011;12193;42.642;23.384;2023-02-08T15:14:30;14.07;;;7.10;;
6424;SDS011;12193;42.642;23.384;2023-02-08T15:17:03;17.47;;;6.93;;
6424;SDS011;12193;42.642;23.384;2023-02-08T15:19:34;16.83;;;7.00;;
6424;SDS011;12193;42.642;23.384;2023-02-08T15:22:28;13.53;;;7.00;;
6424;SDS011;12193;42.642;23.384;2023-02-08T15:25:01;17.67;;;6.10;;
6424;SDS011;12193;42.642;23.384;2023-02-08T15:27:44;9.30;;;4.63;;
6424;SDS011;12193;42.642;23.384;2023-02-08T15:33:08;11.80;;;5.90;;
6424;SDS011;12193;42.642;23.384;2023-02-08T15:35:42;11.57;;;6.17;;
6424;SDS011;12193;42.642;23.384;2023-02-08T15:38:14;10.93;;;6.00;;
6424;SDS011;12193;42.642;23.384;2023-02-08T15:40:58;11.93;;;6.23;;
6424;SDS011;12193;42.642;23.384;2023-02-08T15:43:29;12.23;;;5.73;;
6424;SDS011;12193;42.642;23.384;2023-02-08T15:46:01;11.53;;;5.80;;
6424;SDS011;12193;42.642;23.384;2023-02-08T15:48:41;12.07;;;6.00;;
6424;SDS011;12193;42.642;23.384;2023-02-08T15:51:13;11.63;;;5.70;;
6424;SDS011;12193;42.642;23.384;2023-02-08T15:53:46;11.43;;;5.70;;
6424;SDS011;12193;42.642;23.384;2023-02-08T15:56:18;13.20;;;6.07;;
6424;SDS011;12193;42.642;23.384;2023-02-08T15:58:50;13.97;;;6.63;;
6424;SDS011;12193;42.642;23.384;2023-02-08T16:01:26;12.10;;;5.67;;
6424;SDS011;12193;42.642;23.384;2023-02-08T16:03:57;13.57;;;6.63;;
6424;SDS011;12193;42.642;23.384;2023-02-08T16:06:35;18.83;;;5.83;;
6424;SDS011;12193;42.642;23.384;2023-02-08T16:09:12;12.17;;;5.93;;
6424;SDS011;12193;42.642;23.384;2023-02-08T16:11:45;15.43;;;6.30;;
6424;SDS011;12193;42.642;23.384;2023-02-08T16:14:18;12.53;;;6.07;;
6424;SDS011;12193;42.642;23.384;2023-02-08T16:16:52;13.83;;;6.33;;
6424;SDS011;12193;42.642;23.384;2023-02-08T16:19:25;16.50;;;6.13;;
6424;SDS011;12193;42.642;23.384;2023-02-08T16:21:55;10.77;;;5.43;;
6424;SDS011;12193;42.642;23.384;2023-02-08T16:24:42;14.50;;;5.83;;
6424;SDS011;12193;42.642;23.384;2023-02-08T16:27:15;13.33;;;6.13;;
6424;SDS011;12193;42.642;23.384;2023-02-08T16:29:48;13.13;;;5.57;;
6424;SDS011;12193;42.642;23.384;2023-02-08T16:32:21;12.13;;;5.80;;
6424;SDS011;12193;42.642;23.384;2023-02-08T16:34:54;12.80;;;6.07;;
6424;SDS011;12193;42.642;23.384;2023-02-08T16:37:26;12.53;;;5.53;;
6424;SDS011;12193;42.642;23.384;2023-02-08T16:39:57;9.37;;;4.77;;
6424;SDS011;12193;42.642;23.384;2023-02-08T16:42:29;15.87;;;6.20;;
6424;SDS011;12193;42.642;23.384;2023-02-08T16:45:10;11.37;;;6.17;;
6424;SDS011;12193;42.642;23.384;2023-02-08T16:47:51;14.57;;;5.77;;
6424;SDS011;12193;42.642;23.384;2023-02-08T16:50:23;13.10;;;5.87;;
6424;SDS011;12193;42.642;23.384;2023-02-08T16:52:54;12.20;;;6.07;;
6424;SDS011;12193;42.642;23.384;2023-02-08T16:55:28;10.53;;;4.90;;
6424;SDS011;12193;42.642;23.384;2023-02-08T16:58:00;14.20;;;5.73;;
6424;SDS011;12193;42.642;23.384;2023-02-08T17:00:30;13.27;;;5.63;;
6424;SDS011;12193;42.642;23.384;2023-02-08T17:03:03;11.30;;;5.03;;
6424;SDS011;12193;42.642;23.384;2023-02-08T17:05:34;10.97;;;5.37;;
6424;SDS011;12193;42.642;23.384;2023-02-08T17:08:07;12.40;;;6.63;;
6424;SDS011;12193;42.642;23.384;2023-02-08T17:10:41;13.67;;;6.07;;
6424;SDS011;12193;42.642;23.384;2023-02-08T17:13:13;14.20;;;6.97;;
6424;SDS011;12193;42.642;23.384;2023-02-08T17:15:42;12.33;;;6.00;;
6424;SDS011;12193;42.642;23.384;2023-02-08T17:18:14;14.47;;;6.57;;
6424;SDS011;12193;42.642;23.384;2023-02-08T17:20:44;17.00;;;6.97;;
6424;SDS011;12193;42.642;23.384;2023-02-08T17:23:14;13.97;;;6.40;;
6424;SDS011;12193;42.642;23.384;2023-02-08T17:25:43;15.07;;;6.67;;
6424;SDS011;12193;42.642;23.384;2023-02-08T17:28:13;21.33;;;8.00;;
6424;SDS011;12193;42.642;23.384;2023-02-08T17:30:45;17.37;;;7.30;;
6424;SDS011;12193;42.642;23.384;2023-02-08T17:33:20;15.90;;;7.17;;
6424;SDS011;12193;42.642;23.384;2023-02-08T17:35:52;19.83;;;7.90;;
6424;SDS011;12193;42.642;23.384;2023-02-08T17:38:21;16.77;;;7.20;;
6424;SDS011;12193;42.642;23.384;2023-02-08T17:40:50;17.67;;;8.13;;
6424;SDS011;12193;42.642;23.384;2023-02-08T17:43:20;15.97;;;7.47;;
6424;SDS011;12193;42.642;23.384;2023-02-08T17:45:50;18.90;;;8.50;;
6424;SDS011;12193;42.642;23.384;2023-02-08T17:48:22;19.87;;;8.10;;
6424;SDS011;12193;42.642;23.384;2023-02-08T17:50:52;24.07;;;10.23;;
6424;SDS011;12193;42.642;23.384;2023-02-08T17:53:21;16.80;;;8.00;;
6424;SDS011;12193;42.642;23.384;2023-02-08T17:55:50;16.90;;;8.10;;
6424;SDS011;12193;42.642;23.384;2023-02-08T17:58:20;16.97;;;7.30;;
6424;SDS011;12193;42.642;23.384;2023-02-08T18:00:49;17.93;;;8.30;;
6424;SDS011;12193;42.642;23.384;2023-02-08T18:03:23;18.77;;;7.50;;
6424;SDS011;12193;42.642;23.384;2023-02-08T18:05:54;25.10;;;9.37;;
6424;SDS011;12193;42.642;23.384;2023-02-08T18:08:24;22.97;;;8.57;;
6424;SDS011;12193;42.642;23.384;2023-02-08T18:10:54;20.97;;;8.50;;
6424;SDS011;12193;42.642;23.384;2023-02-08T18:13:23;22.43;;;8.90;;
6424;SDS011;12193;42.642;23.384;2023-02-08T18:15:52;19.03;;;8.47;;
6424;SDS011;12193;42.642;23.384;2023-02-08T18:18:24;16.90;;;8.03;;
6424;SDS011;12193;42.642;23.384;2023-02-08T18:20:54;17.63;;;8.27;;
6424;SDS011;12193;42.642;23.384;2023-02-08T18:23:23;20.23;;;8.60;;
6424;SDS011;12193;42.642;23.384;2023-02-08T18:26:01;19.90;;;7.87;;
6424;SDS011;12193;42.642;23.384;2023-02-08T18:28:31;13.53;;;6.93;;
6424;SDS011;12193;42.642;23.384;2023-02-08T18:31:01;16.00;;;7.30;;
6424;SDS011;12193;42.642;23.384;2023-02-08T18:33:34;20.33;;;8.20;;
6424;SDS011;12193;42.642;23.384;2023-02-08T18:36:04;21.20;;;9.57;;